Terminal Aerodrome Forecast
Issued by NWS

Home | Current Version | Previous Version | Text Only | Print | Product List | Glossary On
Versions: 1 2 3 4 5 6 7 8 9 10 11 12 13 14 15 16 17 18
000
FTUS44 KMOB 222341
TAFBFM
TAF
KBFM 222341Z 2300/2324 26011G18KT P6SM SCT090 SCT250
     FM230300 29016G24KT P6SM VCSH BKN025
     FM231500 32016G24KT P6SM SCT025=

USA.gov is the U.S. government's official web portal to all federal, state and local government web resources and services.